Time;durP1;ratioP1;P1;durP2;ratioP2;P2;SDS_P1;SDS_P2;PMS_P1;PMS_P2;Temp;Humidity;BMP_temperature;BMP_pressure;BME280_temperature;BME280_humidity;BME280_pressure;Samples;Min_cycle;Max_cycle;Signal;HPM_P1;HPM_P2
2023/09/25 00:01:48;;;;;;;2.75;1.10;;;;;;;20.67;50.05;102058.94;5047387;28;20039;-67
2023/09/25 00:04:13;;;;;;;3.70;1.30;;;;;;;20.67;50.34;102062.44;5047527;28;20044;-68
2023/09/25 00:06:38;;;;;;;3.80;1.48;;;;;;;20.64;50.02;102065.31;5047306;28;20029;-69
2023/09/25 00:09:05;;;;;;;3.22;1.20;;;;;;;20.65;49.96;102067.84;5047324;28;20028;-68
2023/09/25 00:11:31;;;;;;;3.00;1.40;;;;;;;20.65;50.26;102062.53;5032473;28;20060;-69
2023/09/25 00:13:56;;;;;;;3.47;1.50;;;;;;;20.63;50.08;102059.13;5050587;28;20956;-68
2023/09/25 00:16:22;;;;;;;2.78;1.15;;;;;;;20.63;49.95;102059.13;5048201;28;20388;-68
2023/09/25 00:18:47;;;;;;;3.00;1.27;;;;;;;20.63;49.78;102058.28;5047541;28;20068;-69
2023/09/25 00:21:13;;;;;;;3.10;1.20;;;;;;;20.62;49.96;102062.72;5041754;28;20041;-67
2023/09/25 00:23:38;;;;;;;4.05;1.30;;;;;;;20.62;49.96;102062.72;5067203;28;20048;-69
2023/09/25 00:26:08;;;;;;;2.90;1.10;;;;;;;20.61;49.73;102065.50;5066879;28;20036;-70
2023/09/25 00:28:33;;;;;;;3.20;1.27;;;;;;;20.61;49.82;102068.97;5046905;28;20025;-69
2023/09/25 00:30:59;;;;;;;2.92;1.20;;;;;;;20.63;49.93;102072.38;5047204;28;20056;-69
2023/09/25 00:33:25;;;;;;;2.78;1.10;;;;;;;20.63;49.84;102069.72;5047005;28;20033;-69
2023/09/25 00:35:53;;;;;;;3.10;1.30;;;;;;;20.62;50.01;102061.91;5047247;28;20512;-68
2023/09/25 00:38:19;;;;;;;2.30;1.00;;;;;;;20.61;49.70;102060.19;5046810;28;20036;-70
2023/09/25 00:40:44;;;;;;;3.80;1.23;;;;;;;20.61;49.63;102068.97;5046640;28;20040;-69
2023/09/25 00:43:12;;;;;;;3.28;1.30;;;;;;;20.60;49.55;102064.66;5010211;28;1072185;-67
2023/09/25 00:45:40;;;;;;;4.15;1.50;;;;;;;20.62;49.59;102069.84;5047807;28;20058;-69
2023/09/25 00:48:09;;;;;;;2.70;1.15;;;;;;;20.61;49.63;102074.28;5047721;28;20389;-69
2023/09/25 00:50:34;;;;;;;3.28;1.30;;;;;;;20.60;49.48;102072.59;5047582;28;20029;-69
2023/09/25 00:53:03;;;;;;;3.15;1.35;;;;;;;20.60;49.79;102069.09;5047472;28;20031;-70
2023/09/25 00:55:29;;;;;;;3.80;1.40;;;;;;;20.58;49.42;102066.53;5047351;28;20052;-68
2023/09/25 00:57:55;;;;;;;2.75;1.30;;;;;;;20.59;49.35;102073.56;5047308;28;20421;-67
2023/09/25 01:00:21;;;;;;;3.30;1.50;;;;;;;20.59;49.60;102070.06;5047266;28;20033;-68
2023/09/25 01:02:47;;;;;;;3.20;1.20;;;;;;;20.59;49.29;102070.06;5047353;28;20098;-69
2023/09/25 01:05:13;;;;;;;3.28;1.20;;;;;;;20.57;49.40;102069.31;5047354;28;20036;-68
2023/09/25 01:07:39;;;;;;;2.63;1.23;;;;;;;20.57;49.61;102077.25;5047257;28;20535;-69
2023/09/25 01:10:17;;;;;;;5.90;1.30;;;;;;;20.56;49.36;102075.59;5047119;28;20025;-67
2023/09/25 01:12:48;;;;;;;3.25;1.33;;;;;;;20.57;49.38;102079.91;5040768;28;20068;-67
2023/09/25 01:15:14;;;;;;;3.15;1.20;;;;;;;20.55;49.11;102077.38;5029503;28;20071;-69
2023/09/25 01:17:40;;;;;;;2.40;1.10;;;;;;;20.56;49.38;102080.88;5047398;28;21460;-69
2023/09/25 01:20:17;;;;;;;2.65;1.13;;;;;;;20.55;49.19;102080.00;5047041;28;20040;-69
2023/09/25 01:22:48;;;;;;;3.00;1.23;;;;;;;20.56;49.48;102078.22;5040630;28;20417;-69
2023/09/25 01:25:15;;;;;;;3.78;1.42;;;;;;;20.56;49.42;102070.28;5047799;28;20029;-69
2023/09/25 01:27:42;;;;;;;2.67;1.17;;;;;;;20.56;49.22;102070.28;5048188;28;20039;-68
2023/09/25 01:30:09;;;;;;;3.05;1.20;;;;;;;20.55;49.36;102076.53;5047199;28;20044;-69
2023/09/25 01:32:39;;;;;;;5.18;1.48;;;;;;;20.53;49.33;102067.84;5046884;28;20124;-68
2023/09/25 01:35:14;;;;;;;3.22;1.40;;;;;;;20.53;49.08;102071.34;5028870;28;20220;-70
2023/09/25 01:37:40;;;;;;;3.95;1.48;;;;;;;20.54;49.03;102067.75;5039711;28;20465;-69
2023/09/25 01:40:11;;;;;;;2.38;1.10;;;;;;;20.55;49.10;102071.22;5046818;28;20033;-70
2023/09/25 01:42:36;;;;;;;4.28;1.30;;;;;;;20.54;49.10;102066.91;5028698;28;20107;-68
2023/09/25 01:45:02;;;;;;;2.55;1.05;;;;;;;20.54;49.12;102064.25;5046426;28;20037;-68
2023/09/25 01:47:27;;;;;;;3.42;1.10;;;;;;;20.51;49.13;102062.66;5047074;28;20037;-68
2023/09/25 01:49:53;;;;;;;3.60;1.25;;;;;;;20.53;49.01;102068.69;5046226;28;20124;-70
2023/09/25 01:52:18;;;;;;;4.20;2.03;;;;;;;20.51;49.01;102062.66;5028848;28;20028;-68
2023/09/25 01:54:43;;;;;;;3.60;1.35;;;;;;;20.52;49.13;102066.16;5046502;28;20037;-68
2023/09/25 01:57:08;;;;;;;3.35;1.27;;;;;;;20.52;49.01;102067.03;5046457;28;20029;-68
2023/09/25 01:59:34;;;;;;;3.10;1.33;;;;;;;20.50;48.95;102066.25;5046311;28;20067;-69
2023/09/25 02:01:59;;;;;;;3.03;1.30;;;;;;;20.50;49.14;102060.13;5046407;28;20060;-70
2023/09/25 02:04:25;;;;;;;3.20;1.20;;;;;;;20.50;49.27;102058.31;5046099;28;20036;-69
2023/09/25 02:06:50;;;;;;;3.35;1.38;;;;;;;20.50;48.85;102052.19;5046505;28;20076;-69
2023/09/25 02:09:15;;;;;;;3.33;1.23;;;;;;;20.47;48.99;102050.59;5046415;28;20077;-69
2023/09/25 02:11:41;;;;;;;3.25;1.30;;;;;;;20.50;48.77;102050.38;5046897;28;20027;-68
2023/09/25 02:14:06;;;;;;;4.43;1.17;;;;;;;20.51;49.14;102057.38;5046192;28;20025;-68
2023/09/25 02:16:31;;;;;;;5.25;1.38;;;;;;;20.49;49.01;102054.00;5046116;28;20021;-68
2023/09/25 02:18:57;;;;;;;3.70;1.23;;;;;;;20.47;48.73;102054.13;5046066;28;20393;-70
2023/09/25 02:21:22;;;;;;;5.22;1.38;;;;;;;20.48;48.93;102047.84;5046258;28;20115;-69
2023/09/25 02:23:48;;;;;;;2.55;1.15;;;;;;;20.47;48.83;102042.66;5046383;28;20029;-70
2023/09/25 02:26:13;;;;;;;3.65;1.42;;;;;;;20.48;48.77;102044.34;5046089;28;20509;-69
2023/09/25 02:28:39;;;;;;;3.30;1.45;;;;;;;20.47;48.80;102050.59;5046256;28;20112;-70
2023/09/25 02:31:04;;;;;;;2.85;1.20;;;;;;;20.46;48.78;102048.94;5046092;28;20543;-69
2023/09/25 02:33:29;;;;;;;3.65;1.55;;;;;;;20.47;48.62;102047.94;5046064;28;20033;-68
2023/09/25 02:36:05;;;;;;;3.85;1.35;;;;;;;20.46;48.83;102051.56;5046129;28;20540;-70
2023/09/25 02:38:30;;;;;;;3.15;1.30;;;;;;;20.46;48.54;102052.41;5048609;28;20036;-69
2023/09/25 02:40:56;;;;;;;2.83;1.17;;;;;;;20.46;48.53;102054.22;5049969;28;20397;-69
2023/09/25 02:43:21;;;;;;;4.00;1.40;;;;;;;20.44;48.72;102049.03;5049846;28;20045;-68
2023/09/25 02:45:46;;;;;;;2.85;1.30;;;;;;;20.45;48.67;102049.88;5049805;28;20021;-69
2023/09/25 02:48:12;;;;;;;3.83;1.40;;;;;;;20.44;48.70;102045.53;5049681;28;20033;-69
2023/09/25 02:50:37;;;;;;;4.82;1.40;;;;;;;20.44;48.63;102050.81;5050265;28;20137;-69
2023/09/25 02:53:02;;;;;;;3.38;1.20;;;;;;;20.46;48.57;102059.53;5050108;28;20443;-69
2023/09/25 02:55:28;;;;;;;4.88;1.58;;;;;;;20.45;48.65;102047.22;5049828;28;20033;-70
2023/09/25 02:57:53;;;;;;;2.45;1.10;;;;;;;20.43;48.58;102047.34;5049854;28;20036;-69
2023/09/25 03:00:18;;;;;;;4.28;1.30;;;;;;;20.43;48.43;102047.34;5049568;28;20120;-70
2023/09/25 03:02:44;;;;;;;3.50;1.40;;;;;;;20.45;48.53;102044.56;5049580;28;20421;-68
2023/09/25 03:05:10;;;;;;;2.80;1.10;;;;;;;20.42;48.32;102039.50;5049731;28;20496;-69
2023/09/25 03:07:35;;;;;;;2.92;1.30;;;;;;;20.43;48.23;102046.50;5049745;28;20401;-68
2023/09/25 03:10:00;;;;;;;4.30;1.80;;;;;;;20.42;48.32;102044.78;5049596;28;20033;-68
2023/09/25 03:12:26;;;;;;;3.35;1.50;;;;;;;20.43;48.65;102049.16;5049632;28;20055;-68
2023/09/25 03:14:51;;;;;;;3.10;1.20;;;;;;;20.42;48.45;102042.97;5049582;28;20039;-69
2023/09/25 03:17:16;;;;;;;3.35;1.30;;;;;;;20.42;48.37;102050.09;5049412;28;20032;-70
2023/09/25 03:19:42;;;;;;;3.97;1.40;;;;;;;20.41;48.36;102046.59;5049365;28;20122;-69
2023/09/25 03:22:07;;;;;;;3.25;1.25;;;;;;;20.40;48.43;102050.19;5049537;28;20036;-70
2023/09/25 03:24:35;;;;;;;3.80;1.38;;;;;;;20.41;48.37;102051.03;5049333;28;20112;-69
2023/09/25 03:27:00;;;;;;;4.75;1.40;;;;;;;20.40;48.44;102049.38;5049218;28;20481;-69
2023/09/25 03:29:25;;;;;;;3.70;1.70;;;;;;;20.40;48.23;102049.38;5049608;28;20044;-70
2023/09/25 03:31:50;;;;;;;3.65;1.33;;;;;;;20.41;48.32;102054.56;5048817;28;20507;-71
2023/09/25 03:34:16;;;;;;;2.72;1.40;;;;;;;20.40;48.34;102049.38;5049113;28;20028;-70
2023/09/25 03:36:41;;;;;;;3.58;1.45;;;;;;;20.41;48.44;102053.69;5049055;28;20366;-70
2023/09/25 03:39:06;;;;;;;3.42;1.30;;;;;;;20.40;48.17;102046.72;5049006;28;20025;-69
2023/09/25 03:41:32;;;;;;;4.38;1.50;;;;;;;20.38;48.32;102043.34;5048648;28;20461;-70
2023/09/25 03:43:57;;;;;;;3.33;1.30;;;;;;;20.40;48.44;102044.06;5048969;28;20078;-68
2023/09/25 03:46:22;;;;;;;3.35;1.25;;;;;;;20.39;48.19;102039.72;5048667;28;20082;-70
2023/09/25 03:48:48;;;;;;;2.33;1.20;;;;;;;20.38;48.39;102041.53;5048387;28;20029;-70
2023/09/25 03:51:13;;;;;;;4.65;1.42;;;;;;;20.36;48.13;102039.94;5048935;28;20440;-70
2023/09/25 03:53:38;;;;;;;3.70;1.50;;;;;;;20.37;48.12;102050.41;5030979;28;20547;-69
2023/09/25 03:56:04;;;;;;;3.60;1.30;;;;;;;20.37;48.08;102046.94;5048604;28;20045;-70
2023/09/25 03:58:29;;;;;;;2.78;1.10;;;;;;;20.36;48.11;102040.81;5048767;28;20474;-69
2023/09/25 04:00:55;;;;;;;2.83;1.08;;;;;;;20.38;48.28;102048.63;5049669;28;20366;-70
2023/09/25 04:03:20;;;;;;;3.17;1.30;;;;;;;20.37;48.27;102053.06;5048381;28;20021;-69
2023/09/25 04:05:45;;;;;;;3.80;1.40;;;;;;;20.37;48.17;102053.06;5048388;28;20404;-69
2023/09/25 04:08:10;;;;;;;3.60;1.63;;;;;;;20.36;48.07;102054.03;5057572;28;20025;-70
2023/09/25 04:10:39;;;;;;;4.03;1.40;;;;;;;20.36;48.09;102058.47;5068339;28;20055;-69
2023/09/25 04:13:04;;;;;;;2.60;1.30;;;;;;;20.36;48.18;102047.88;5068420;28;20032;-69
2023/09/25 04:15:31;;;;;;;3.33;1.30;;;;;;;20.34;48.22;102055.94;5068183;28;20032;-69
2023/09/25 04:17:57;;;;;;;2.75;1.10;;;;;;;20.36;48.01;102069.94;5068690;28;20040;-68
2023/09/25 04:20:25;;;;;;;3.83;1.50;;;;;;;20.36;47.93;102061.97;5057896;28;20393;-68
2023/09/25 04:22:52;;;;;;;3.78;1.30;;;;;;;20.34;48.17;102055.09;5047994;28;20028;-68
2023/09/25 04:25:19;;;;;;;4.65;1.20;;;;;;;20.33;47.96;102054.25;5048139;28;20119;-69
2023/09/25 04:27:45;;;;;;;2.95;1.40;;;;;;;20.33;48.04;102051.63;5048164;28;20029;-68
2023/09/25 04:30:14;;;;;;;2.40;1.10;;;;;;;20.35;47.97;102054.16;5030079;28;20389;-69
2023/09/25 04:32:40;;;;;;;3.95;1.58;;;;;;;20.35;47.93;102059.44;5052676;28;20028;-69
2023/09/25 04:35:07;;;;;;;2.55;1.30;;;;;;;20.34;48.02;102061.22;5067953;28;20147;-70
2023/09/25 04:37:33;;;;;;;5.22;1.50;;;;;;;20.34;48.08;102060.38;5067790;28;20432;-69
2023/09/25 04:39:58;;;;;;;3.33;1.15;;;;;;;20.32;48.25;102059.66;5067582;28;22034;-69
2023/09/25 04:42:23;;;;;;;3.50;1.30;;;;;;;20.32;48.03;102065.78;5067870;28;20076;-68
2023/09/25 04:44:49;;;;;;;3.27;1.40;;;;;;;20.30;48.17;102060.59;5067405;28;20115;-68
2023/09/25 04:47:14;;;;;;;3.67;1.20;;;;;;;20.32;48.17;102064.97;5067904;28;20610;-68
2023/09/25 04:49:39;;;;;;;2.63;1.30;;;;;;;20.32;47.95;102057.03;5067527;28;20111;-68
2023/09/25 04:52:05;;;;;;;3.35;1.40;;;;;;;20.30;48.10;102060.59;5067883;28;20036;-69
2023/09/25 04:54:31;;;;;;;2.95;1.27;;;;;;;20.30;48.21;102063.25;5067690;28;20029;-67
2023/09/25 04:56:56;;;;;;;3.53;1.42;;;;;;;20.30;47.81;102059.78;5067538;28;20068;-68
2023/09/25 04:59:22;;;;;;;3.45;1.63;;;;;;;20.31;47.95;102066.75;5067187;28;20129;-70
2023/09/25 05:01:47;;;;;;;3.42;1.50;;;;;;;20.31;48.21;102072.03;5066442;28;20062;-70
2023/09/25 05:04:12;;;;;;;3.45;1.52;;;;;;;20.32;47.91;102070.25;5067554;28;20024;-69
2023/09/25 05:06:38;;;;;;;3.65;1.50;;;;;;;20.29;47.57;102066.00;5067256;28;20111;-67
2023/09/25 05:09:05;;;;;;;4.28;1.55;;;;;;;20.29;47.96;102073.94;5034140;28;20025;-68
2023/09/25 05:11:31;;;;;;;3.78;1.50;;;;;;;20.30;47.85;102075.66;5047130;28;20481;-67
2023/09/25 05:13:56;;;;;;;3.75;1.45;;;;;;;20.29;47.91;102071.31;5047172;28;20036;-69
2023/09/25 05:16:21;;;;;;;4.22;1.52;;;;;;;20.30;47.98;102067.72;5047509;28;20031;-70
2023/09/25 05:18:47;;;;;;;3.67;1.55;;;;;;;20.28;47.96;102070.47;5047283;28;20025;-68
2023/09/25 05:21:12;;;;;;;4.25;1.50;;;;;;;20.29;47.95;102072.16;5046884;28;20040;-70
2023/09/25 05:23:38;;;;;;;3.78;1.65;;;;;;;20.27;47.81;102075.88;5046661;28;20179;-69
2023/09/25 05:26:03;;;;;;;4.35;1.70;;;;;;;20.28;47.76;102078.41;5046766;28;20039;-70
2023/09/25 05:28:29;;;;;;;4.60;1.90;;;;;;;20.29;47.65;102084.53;5046647;28;20029;-70
2023/09/25 05:30:55;;;;;;;4.18;1.70;;;;;;;20.28;48.25;102077.53;5046725;28;20032;-69
2023/09/25 05:33:20;;;;;;;5.35;2.03;;;;;;;20.27;47.93;102079.34;5046754;28;20055;-71
2023/09/25 05:35:47;;;;;;;3.42;1.50;;;;;;;20.26;47.95;102085.59;5046863;28;20024;-71
2023/09/25 05:38:12;;;;;;;3.78;1.50;;;;;;;20.25;47.84;102081.28;5046597;28;20029;-70
2023/09/25 05:40:38;;;;;;;3.35;1.40;;;;;;;20.27;47.93;102081.16;5046418;28;20033;-70
2023/09/25 05:43:03;;;;;;;4.55;1.50;;;;;;;20.26;48.05;102084.75;5029394;28;20049;-69
2023/09/25 05:45:28;;;;;;;3.72;1.55;;;;;;;20.28;47.91;102090.78;5026835;28;20461;-70
2023/09/25 05:47:54;;;;;;;3.38;1.30;;;;;;;20.27;47.84;102083.81;5026578;28;20122;-70
2023/09/25 05:50:19;;;;;;;5.68;1.50;;;;;;;20.26;47.90;102084.75;5007008;28;20044;-69
2023/09/25 05:52:44;;;;;;;3.75;1.48;;;;;;;20.27;47.83;102086.47;5026675;28;20042;-69
2023/09/25 05:55:10;;;;;;;3.90;1.55;;;;;;;20.26;47.94;102088.25;5005662;28;20026;-70
2023/09/25 05:57:36;;;;;;;4.20;1.42;;;;;;;20.28;47.98;102088.13;5026081;28;20034;-69
2023/09/25 06:00:11;;;;;;;3.28;1.40;;;;;;;20.28;47.82;102085.50;5025702;28;20068;-68
2023/09/25 06:02:38;;;;;;;3.78;1.38;;;;;;;20.26;47.79;102096.19;5030651;28;20167;-68
2023/09/25 06:05:04;;;;;;;3.45;1.25;;;;;;;20.26;47.75;102096.19;5027066;28;20048;-71
2023/09/25 06:07:30;;;;;;;3.63;1.50;;;;;;;20.27;47.77;102091.75;5027502;28;20398;-69
2023/09/25 06:09:55;;;;;;;5.57;1.50;;;;;;;20.25;47.70;102099.81;5026630;28;20494;-70
2023/09/25 06:12:20;;;;;;;3.72;1.50;;;;;;;20.26;47.98;102098.00;5025988;28;20029;-68
2023/09/25 06:14:46;;;;;;;3.88;1.38;;;;;;;20.27;47.70;102092.59;5024694;28;20029;-68
2023/09/25 06:17:11;;;;;;;3.47;1.42;;;;;;;20.26;47.86;102096.19;5042388;28;20021;-67
2023/09/25 06:19:36;;;;;;;3.90;1.30;;;;;;;20.26;47.63;102103.28;5012267;28;20028;-68
2023/09/25 06:22:02;;;;;;;4.15;1.48;;;;;;;20.26;48.04;102092.69;5026113;28;20029;-70
2023/09/25 06:24:27;;;;;;;3.90;1.50;;;;;;;20.25;47.86;102096.28;5026158;28;20029;-68
2023/09/25 06:26:53;;;;;;;3.13;1.33;;;;;;;20.24;48.01;102098.09;5040045;28;20021;-69
2023/09/25 06:29:21;;;;;;;2.78;1.20;;;;;;;20.21;48.10;102093.03;5026516;28;20120;-70
2023/09/25 06:31:47;;;;;;;3.22;1.48;;;;;;;20.23;48.31;102103.50;5004753;28;20044;-70
2023/09/25 06:34:12;;;;;;;4.45;1.73;;;;;;;20.24;48.03;102092.81;5023709;28;20087;-71
2023/09/25 06:36:38;;;;;;;4.68;1.70;;;;;;;20.25;48.06;102088.34;5026045;28;20030;-71
2023/09/25 06:39:13;;;;;;;5.32;1.63;;;;;;;20.27;48.35;102099.69;5025989;28;20029;-71
2023/09/25 06:41:39;;;;;;;4.03;1.50;;;;;;;20.27;48.30;102103.19;5030836;28;20064;-69
2023/09/25 06:44:05;;;;;;;3.88;1.50;;;;;;;20.29;48.47;102103.06;5045995;28;20045;-69
2023/09/25 06:46:34;;;;;;;5.40;1.50;;;;;;;20.25;48.82;102110.41;5045871;28;20445;-68
2023/09/25 06:49:01;;;;;;;4.47;1.60;;;;;;;20.26;48.70;102105.94;5046020;28;20481;-71
2023/09/25 06:51:28;;;;;;;3.80;1.23;;;;;;;20.26;48.93;102109.41;5045783;28;20504;-69
2023/09/25 06:53:53;;;;;;;6.70;1.70;;;;;;;20.28;49.14;102106.66;5045638;28;20033;-70
2023/09/25 06:56:18;;;;;;;5.97;1.42;;;;;;;20.28;49.15;102109.31;5045647;28;20451;-69
2023/09/25 06:58:44;;;;;;;4.85;1.35;;;;;;;20.29;48.81;102108.38;5046080;28;20176;-71
2023/09/25 07:01:09;;;;;;;4.15;1.65;;;;;;;20.26;49.49;102104.13;5045214;28;20037;-70
2023/09/25 07:03:34;;;;;;;3.42;1.40;;;;;;;20.27;49.68;102105.00;5045464;28;20136;-72
2023/09/25 07:05:59;;;;;;;3.42;1.40;;;;;;;20.28;49.48;102104.00;5045694;28;20029;-70
2023/09/25 07:08:26;;;;;;;4.47;1.88;;;;;;;20.28;49.38;102096.94;5045646;28;20075;-69
2023/09/25 07:10:51;;;;;;;5.07;1.60;;;;;;;20.29;49.60;102108.38;5045777;28;20032;-70
2023/09/25 07:13:19;;;;;;;7.43;1.55;;;;;;;20.27;49.83;102100.53;5045778;28;20078;-71
2023/09/25 07:15:44;;;;;;;4.13;1.42;;;;;;;20.29;49.75;102095.13;5045634;28;20052;-72
2023/09/25 07:18:10;;;;;;;3.22;1.30;;;;;;;20.30;50.27;102110.06;5046149;28;20025;-69
2023/09/25 07:20:36;;;;;;;4.40;1.42;;;;;;;20.31;50.05;102109.09;5044583;28;20489;-70
2023/09/25 07:23:01;;;;;;;4.70;1.63;;;;;;;20.30;49.97;102104.78;5045160;28;20076;-72
2023/09/25 07:25:27;;;;;;;5.97;1.65;;;;;;;20.32;49.82;102099.38;5050345;28;20081;-69
2023/09/25 07:27:52;;;;;;;5.22;1.50;;;;;;;20.35;49.80;102102.63;5069317;28;20491;-70
2023/09/25 07:30:18;;;;;;;3.38;1.60;;;;;;;20.39;49.62;102100.63;5068677;28;20476;-72
2023/09/25 07:32:43;;;;;;;4.32;1.60;;;;;;;20.38;49.67;102104.25;5050895;28;20033;-70
2023/09/25 07:35:09;;;;;;;3.47;1.40;;;;;;;20.37;50.09;102103.38;5049079;28;20457;-70
2023/09/25 07:37:36;;;;;;;4.05;1.65;;;;;;;20.34;49.66;102100.09;5057887;28;20055;-69
2023/09/25 07:40:08;;;;;;;6.30;1.90;;;;;;;20.26;50.21;102098.81;5048870;28;20481;-69
2023/09/25 07:42:33;;;;;;;3.90;1.60;;;;;;;20.18;50.46;102098.53;5047315;28;20049;-72
2023/09/25 07:44:59;;;;;;;7.07;1.50;;;;;;;20.15;50.37;102096.09;5061970;28;20032;-67
2023/09/25 07:47:24;;;;;;;4.72;1.77;;;;;;;20.13;50.38;102097.19;5068428;28;20035;-71
2023/09/25 07:49:49;;;;;;;4.93;1.65;;;;;;;20.13;50.42;102103.31;5067917;28;20024;-69
2023/09/25 07:52:19;;;;;;;3.83;1.60;;;;;;;20.11;50.50;102100.78;5067194;28;20103;-70
2023/09/25 07:54:49;;;;;;;5.45;1.50;;;;;;;20.07;50.45;102093.97;5067204;28;20024;-69
2023/09/25 07:57:19;;;;;;;3.22;1.38;;;;;;;20.07;50.51;102099.28;5047763;28;20068;-68
2023/09/25 07:59:45;;;;;;;4.82;1.23;;;;;;;20.08;50.74;102106.28;5048105;28;20059;-69
2023/09/25 08:02:20;;;;;;;5.65;1.30;;;;;;;20.07;50.66;102101.09;5046555;28;20440;-70
2023/09/25 08:04:45;;;;;;;5.50;1.45;;;;;;;20.11;50.64;102105.22;5045916;28;20045;-70
2023/09/25 08:07:11;;;;;;;4.90;1.48;;;;;;;20.11;50.63;102103.41;5047588;28;20029;-72
2023/09/25 08:09:37;;;;;;;3.63;1.30;;;;;;;20.16;50.49;102104.91;5052171;28;20127;-70
2023/09/25 08:12:03;;;;;;;5.22;1.45;;;;;;;20.13;50.49;102108.59;5047813;28;20158;-69
2023/09/25 08:14:28;;;;;;;3.10;1.20;;;;;;;20.16;50.72;102112.84;5047654;28;20120;-68
2023/09/25 08:16:53;;;;;;;6.00;1.60;;;;;;;20.15;50.70;102100.56;5052845;28;20036;-68
2023/09/25 08:19:22;;;;;;;5.45;1.73;;;;;;;20.16;50.45;102107.56;5049481;28;20047;-69
2023/09/25 08:21:48;;;;;;;4.05;1.52;;;;;;;20.15;50.49;102109.34;5067802;28;20039;-68
2023/09/25 08:24:13;;;;;;;3.60;1.35;;;;;;;20.15;50.15;102104.03;5049936;28;20029;-68
2023/09/25 08:26:39;;;;;;;4.07;1.38;;;;;;;20.17;50.28;102111.88;5060148;28;20032;-72
2023/09/25 08:29:05;;;;;;;4.65;1.90;;;;;;;20.19;50.48;102116.13;5068203;28;20386;-73
2023/09/25 08:31:31;;;;;;;4.82;1.60;;;;;;;20.19;50.42;102099.41;5067859;28;20479;-74
2023/09/25 08:33:57;;;;;;;3.67;1.30;;;;;;;20.18;50.35;102109.13;5034586;28;20067;-69
2023/09/25 08:36:22;;;;;;;3.95;1.33;;;;;;;20.21;50.17;102105.41;5045341;28;20025;-70
2023/09/25 08:38:47;;;;;;;3.17;1.27;;;;;;;20.24;50.24;102100.75;5048026;28;20082;-71
2023/09/25 08:41:13;;;;;;;5.75;1.40;;;;;;;20.23;50.32;102099.03;5045368;28;20489;-71
2023/09/25 08:43:43;;;;;;;4.75;1.33;;;;;;;20.24;50.39;102098.09;5027423;28;20025;-71
2023/09/25 08:46:09;;;;;;;4.28;1.58;;;;;;;20.22;50.56;102081.50;5006494;28;20474;-68
2023/09/25 08:48:35;;;;;;;4.50;1.40;;;;;;;20.25;50.50;102086.56;5027508;28;20144;-69
2023/09/25 08:51:01;;;;;;;4.47;1.45;;;;;;;20.23;50.58;102091.09;5027422;28;20172;-71
2023/09/25 08:53:29;;;;;;;6.45;1.52;;;;;;;20.26;50.08;102082.94;5027640;28;20044;-67
2023/09/25 08:55:55;;;;;;;4.15;1.35;;;;;;;20.27;50.32;102078.53;5027219;28;20155;-70
2023/09/25 08:58:21;;;;;;;4.13;1.50;;;;;;;20.27;50.29;102076.72;5027395;28;20260;-68
2023/09/25 09:00:47;;;;;;;5.97;1.48;;;;;;;20.27;50.20;102082.00;5006368;28;21577;-71
2023/09/25 09:03:12;;;;;;;4.50;1.50;;;;;;;20.27;50.50;102086.47;5024564;28;20029;-71
2023/09/25 09:05:38;;;;;;;5.75;1.55;;;;;;;20.26;50.29;102082.94;5027273;28;20036;-69
2023/09/25 09:08:05;;;;;;;4.82;1.98;;;;;;;20.26;50.35;102082.94;5028638;28;20047;-70
2023/09/25 09:10:38;;;;;;;5.10;1.40;;;;;;;20.31;50.38;102082.63;5028662;28;20026;-70
2023/09/25 09:13:11;;;;;;;4.18;1.38;;;;;;;20.31;50.50;102079.97;5027691;28;20137;-70
2023/09/25 09:15:38;;;;;;;3.60;1.40;;;;;;;20.29;50.33;102084.53;5027537;28;20037;-69
2023/09/25 09:18:23;;;;;;;4.80;1.52;;;;;;;20.30;50.32;102087.09;5035094;28;20021;-72
2023/09/25 09:20:48;;;;;;;3.67;1.40;;;;;;;20.30;50.36;102079.13;5027353;28;20136;-70
2023/09/25 09:23:17;;;;;;;4.35;1.30;;;;;;;20.30;50.54;102083.59;5027620;28;20502;-69
2023/09/25 09:25:46;;;;;;;5.22;1.52;;;;;;;20.30;50.47;102080.94;5027576;28;20060;-69
2023/09/25 09:28:11;;;;;;;4.70;1.23;;;;;;;20.28;50.61;102081.06;5027483;28;20132;-70
2023/09/25 09:30:37;;;;;;;7.65;1.52;;;;;;;20.32;50.69;102083.50;5027459;28;20049;-68
2023/09/25 09:33:10;;;;;;;4.85;1.63;;;;;;;20.32;50.63;102083.50;5022452;28;20112;-69
2023/09/25 09:35:37;;;;;;;4.38;1.42;;;;;;;20.30;50.56;102084.44;5024722;28;20033;-68
2023/09/25 09:38:05;;;;;;;4.70;1.52;;;;;;;20.32;50.90;102081.69;5025183;28;20482;-67
2023/09/25 09:40:30;;;;;;;3.38;1.30;;;;;;;20.31;50.63;102085.28;5025608;28;20043;-69
2023/09/25 09:42:56;;;;;;;4.57;1.75;;;;;;;20.34;50.75;102090.34;5041175;28;20135;-70
2023/09/25 09:45:22;;;;;;;7.65;1.50;;;;;;;20.32;50.70;102086.13;5043390;28;20025;-67
2023/09/25 09:47:48;;;;;;;6.00;1.67;;;;;;;20.34;50.61;102089.50;5043359;28;20799;-68
2023/09/25 09:50:22;;;;;;;6.50;1.33;;;;;;;20.33;50.87;102088.69;5042889;28;20029;-67
2023/09/25 09:52:48;;;;;;;3.85;1.40;;;;;;;20.34;50.82;102090.34;5043172;28;20033;-65
2023/09/25 09:55:15;;;;;;;3.90;1.35;;;;;;;20.34;50.72;102098.28;5023226;28;20033;-74
2023/09/25 09:57:41;;;;;;;3.40;1.35;;;;;;;20.36;50.98;102092.88;5027336;28;20021;-69
2023/09/25 10:00:07;;;;;;;3.72;1.27;;;;;;;20.34;50.87;102094.81;5044750;28;20051;-68
2023/09/25 10:02:34;;;;;;;6.90;1.48;;;;;;;20.37;51.12;102100.72;5046018;28;20035;-64
2023/09/25 10:05:00;;;;;;;3.30;1.67;;;;;;;20.38;50.64;102096.28;5043685;28;20105;-65
2023/09/25 10:07:27;;;;;;;5.30;1.27;;;;;;;20.37;50.93;102099.88;5046119;28;20037;-66
2023/09/25 10:09:58;;;;;;;3.55;1.55;;;;;;;20.47;50.56;102101.78;5064464;28;20033;-67
2023/09/25 10:12:42;;;;;;;12.52;1.67;;;;;;;20.67;50.12;102098.69;5047652;28;20048;-66
2023/09/25 10:15:08;;;;;;;8.05;1.40;;;;;;;20.81;49.86;102093.22;5044723;28;20028;-66
2023/09/25 10:17:41;;;;;;;3.65;1.40;;;;;;;20.85;49.71;102089.38;5044404;28;20029;-66
2023/09/25 10:20:32;;;;;;;4.10;1.40;;;;;;;20.91;49.73;102094.22;5045517;28;20082;-66
2023/09/25 10:23:02;;;;;;;3.40;1.30;;;;;;;20.94;49.65;102095.81;5046317;28;20148;-66
2023/09/25 10:25:31;;;;;;;5.25;2.08;;;;;;;20.93;49.60;102094.13;5046435;28;20075;-67
2023/09/25 10:27:56;;;;;;;4.13;1.30;;;;;;;20.92;49.25;102085.31;5046187;28;20037;-66
2023/09/25 10:30:22;;;;;;;3.72;1.30;;;;;;;20.92;49.64;102097.72;5046929;28;20115;-67
2023/09/25 10:32:52;;;;;;;5.35;1.33;;;;;;;20.90;49.38;102092.53;5047374;28;20029;-67
2023/09/25 10:35:37;;;;;;;6.13;1.02;;;;;;;20.90;49.24;102102.28;5046182;28;20025;-66
2023/09/25 10:38:13;;;;;;;2.85;1.33;;;;;;;20.88;49.62;102097.09;5046176;28;20025;-67
2023/09/25 10:40:46;;;;;;;5.22;1.40;;;;;;;20.88;49.43;102090.97;5046237;28;20072;-67
2023/09/25 10:43:12;;;;;;;3.50;1.27;;;;;;;20.89;49.40;102088.19;5045799;28;20139;-67
2023/09/25 10:45:38;;;;;;;3.67;1.40;;;;;;;20.89;49.57;102093.50;5047095;28;20514;-66
2023/09/25 10:48:04;;;;;;;3.75;1.40;;;;;;;20.89;49.48;102092.66;5046891;28;20440;-66
2023/09/25 10:50:29;;;;;;;4.13;1.23;;;;;;;20.87;49.57;102089.25;5046624;28;20047;-67
2023/09/25 10:52:55;;;;;;;4.13;1.38;;;;;;;20.88;49.75;102083.00;5045915;28;20059;-66
2023/09/25 10:55:21;;;;;;;3.20;1.25;;;;;;;20.88;49.59;102085.66;5028173;28;20389;-68
2023/09/25 10:57:46;;;;;;;3.15;1.13;;;;;;;20.86;49.45;102085.78;5045885;28;20111;-67
2023/09/25 11:00:15;;;;;;;3.45;1.17;;;;;;;20.84;49.70;102080.59;5049416;28;20427;-67
2023/09/25 11:02:43;;;;;;;3.95;0.98;;;;;;;20.84;49.60;102087.69;5049924;28;20060;-69
2023/09/25 11:05:13;;;;;;;3.63;1.30;;;;;;;20.83;50.00;102086.84;5049613;28;20496;-68
2023/09/25 11:07:38;;;;;;;5.93;1.60;;;;;;;20.82;49.70;102100.19;5049718;28;20029;-68
2023/09/25 11:10:08;;;;;;;3.20;1.25;;;;;;;20.82;49.61;102101.06;5049738;28;20056;-68
2023/09/25 11:12:34;;;;;;;3.55;1.10;;;;;;;20.83;49.86;102099.25;5049444;28;20470;-68
2023/09/25 11:14:59;;;;;;;3.60;1.08;;;;;;;20.82;50.13;102097.53;5049875;28;20112;-68
2023/09/25 11:17:26;;;;;;;3.97;1.30;;;;;;;20.82;49.89;102095.75;5068646;28;20031;-68
2023/09/25 11:19:52;;;;;;;3.45;1.25;;;;;;;20.80;49.87;102100.31;5055464;28;20071;-68
2023/09/25 11:22:21;;;;;;;4.22;2.15;;;;;;;20.81;50.03;102091.41;5048774;28;20078;-68